Elk Point, SD

8:41 AM CDT on August 29, 2014 (GMT -0500)
Mr Rogers | Change Station
CLOSE
Current Station
Personal Weather Station
Location: Elk Point, SD
Elevation: 1112 ft
Nearby Weather Stations

Elev 1112 ft 42.71 °N, 96.65 °W | Updated 6 seconds ago

Overcast
Overcast
72.0 °F
Feels Like 66 °F
N
4.6
Wind Variable Wind from South
Gusts 4.6 mph

Today
High -- | Low -- °F
--% Chance of Precip.
Yesterday
High -- | Low -- °F
Precip. -- in
6:48 AM 8:05 PM
Waxing Crescent, 14% visible
Pressure 29.81 in
Visibility 9.0 miles
Clouds Overcast 1900 ft
Heat Index 66 °F
Dew Point 71.7 °F
Humidity 99%
Rainfall 0.00 in
Snow Depth Not available.
UV 0 out of 12
Pollen 8.20 out of 12
Air Quality Not available.
Flu Activity Not available.
METAR KLRJ 291335Z AUTO 16006KT 9SM OVC019 21/20 A2981 RMK AO2

More Conditions Fewer Conditions

Pressure 29.81 in
Visibility 9.0 miles
Clouds Overcast 1900 ft
Heat Index 66 °F
Dew Point 71.7 °F
Humidity 99%
Rainfall 0.00 in
Snow Depth Not available.
UV 0 out of 12
Pollen 8.20 out of 12
Air Quality Not available.
Flu Activity Not available.
METAR KLRJ 291335Z AUTO 16006KT 9SM OVC019 21/20 A2981 RMK AO2

More Conditions Fewer Conditions

10-Day Weather Forecast

Almanac

Astronomy

Aug. 29, 2014 Rise Set
Actual Time 6:48 AM CDT 8:05 PM CDT
Civil Twilight 6:18 AM CDT 8:35 PM CDT
Nautical Twilight 5:43 AM CDT 9:10 PM CDT
Astronomical Twilight 5:06 AM CDT 9:47 PM CDT
Moon 10:45 AM CDT 9:57 PM CDT
Length of Visible Light 14h 16m
Length of Day
13h 17m
Tomorrow will be 2m 46s shorter.
Waxing Crescent, 14% of the Moon is Illuminated
Today
Waxing Crescent
Sep 2
First Quarter
Sep 8
Full
Sep 15
Last Quarter
Sep 24
New

Today's Extremes

State Highs State Lows

Community

WunderPhotos

Upload Photos

1,748,235 photos uploaded!

Nearby

Snow Depth

Station Depth Elevation
Blind Park 0 in 6890 ft

Earthquake Activity

City Distance Mag. Time & Date
No recent earthquake activity has been reported nearby.
Minimum magnitude displayed is 2.5.

Coastal Water Temperatures

Place Temperature
No Stations Reporting

Nearby Weather Stations